Weather at Piloto Airport

Public forecast

Using degrees Celsius for public forecast. Weather courtesy of forecast.io.

Closest aviation weather report (METAR) to Piloto Airport

Closest report is Cibao International Airport, 35.9 nm (66.5 km) ESE. Retrieved 2021/01/27 23:00 UTC (59 minutes ago):

MDST 272300Z 11007KT 9999 FEW020 26/19 Q1016 NOSIG

Closest aviation forecast (TAF) to Piloto Airport

Closest forecast is Cibao International Airport, 35.9 nm (66.5 km) ESE. Retrieved 2021/01/27 18:00 UTC (6 hours ago):

TAF MDST 271600Z 2718/2818 13012KT 9999 SCT022